Time;durP1;ratioP1;P1;durP2;ratioP2;P2;SDS_P1;SDS_P2;PMS_P1;PMS_P2;Temp;Humidity;BMP_temperature;BMP_pressure;BME280_temperature;BME280_humidity;BME280_pressure;Samples;Min_cycle;Max_cycle;Signal;HPM_P1;HPM_P2
2022/10/06 00:00:04;;;;;;;;;10.50;6.50;;;24.30;102273.66;;;;117491;1189;25523;-60
2022/10/06 00:02:52;;;;;;;;;7.75;6.00;;;24.34;102271.52;;;;117533;1188;25732;-60
2022/10/06 00:05:21;;;;;;;;;9.00;4.25;;;24.35;102271.83;;;;117465;1189;24978;-60
2022/10/06 00:07:49;;;;;;;;;7.75;7.25;;;24.33;102268.98;;;;117526;1188;25289;-60
2022/10/06 00:10:17;;;;;;;;;9.50;7.00;;;24.32;102265.70;;;;117521;1188;24787;-61
2022/10/06 00:12:49;;;;;;;;;4.00;4.00;;;24.31;102266.14;;;;117472;1189;25068;-60
2022/10/06 00:15:25;;;;;;;;;7.00;6.25;;;24.29;102263.68;;;;117515;1186;25068;-60
2022/10/06 00:17:54;;;;;;;;;7.75;7.00;;;24.29;102257.67;;;;117877;1187;25057;-61
2022/10/06 00:20:24;;;;;;;;;6.75;6.50;;;24.31;102254.97;;;;117833;1187;25191;-61
2022/10/06 00:22:53;;;;;;;;;11.25;8.00;;;24.31;102252.67;;;;117513;1189;25326;-61
2022/10/06 00:25:24;;;;;;;;;10.75;9.50;;;24.29;102248.86;;;;117496;1188;25693;-69
2022/10/06 00:27:53;;;;;;;;;7.67;6.00;;;24.27;102245.79;;;;117505;1188;24784;-60
2022/10/06 00:30:25;;;;;;;;;8.25;7.25;;;24.28;102248.33;;;;117498;1188;25614;-60
2022/10/06 00:33:01;;;;;;;;;10.00;7.50;;;24.27;102244.30;;;;117506;1189;24836;-60
2022/10/06 00:35:33;;;;;;;;;8.33;7.00;;;24.27;102244.73;;;;117887;1187;24742;-61
2022/10/06 00:38:02;;;;;;;;;8.00;7.25;;;24.27;102242.33;;;;117494;1189;25535;-63
2022/10/06 00:40:31;;;;;;;;;7.00;5.67;;;24.27;102239.86;;;;117543;1188;25786;-60
2022/10/06 00:43:05;;;;;;;;;8.25;7.25;;;24.28;102237.83;;;;117811;1188;25551;-60
2022/10/06 00:45:39;;;;;;;;;8.67;7.33;;;24.28;102239.10;;;;117488;1188;25618;-60
2022/10/06 00:48:18;;;;;;;;;7.25;7.25;;;24.29;102241.63;;;;117525;1189;25260;-60
2022/10/06 00:50:47;;;;;;;;;8.00;7.33;;;24.29;102241.60;;;;117514;1189;24729;-61
2022/10/06 00:53:15;;;;;;;;;8.00;8.00;;;24.31;102240.05;;;;117842;1188;25563;-64
2022/10/06 00:55:44;;;;;;;;;6.50;5.75;;;24.29;102237.30;;;;117479;1188;25213;-66
2022/10/06 00:58:13;;;;;;;;;6.25;6.25;;;24.28;102235.77;;;;117473;1188;25212;-62
2022/10/06 01:00:43;;;;;;;;;9.00;6.67;;;24.27;102233.34;;;;117473;1187;25183;-60
2022/10/06 01:03:17;;;;;;;;;7.75;7.00;;;24.27;102236.17;;;;117513;1188;24741;-60
2022/10/06 01:05:49;;;;;;;;;9.00;7.67;;;24.28;102242.77;;;;117877;1186;25646;-60
2022/10/06 01:08:18;;;;;;;;;8.50;6.50;;;24.29;102240.75;;;;117889;1187;25144;-60
2022/10/06 01:10:46;;;;;;;;;9.00;6.00;;;24.27;102241.41;;;;117468;1189;25298;-60
2022/10/06 01:13:15;;;;;;;;;7.25;6.00;;;24.24;102240.52;;;;117531;1189;24798;-61
2022/10/06 01:15:51;;;;;;;;;6.25;6.25;;;24.24;102240.62;;;;117489;1189;25500;-60
2022/10/06 01:18:21;;;;;;;;;9.00;7.00;;;24.26;102242.93;;;;117858;1187;25016;-60
2022/10/06 01:21:08;;;;;;;;;7.00;7.00;;;24.27;102240.63;;;;117508;1188;25720;-60
2022/10/06 01:23:37;;;;;;;;;10.25;8.25;;;24.28;102240.60;;;;117476;1188;25095;-60
2022/10/06 01:26:09;;;;;;;;;7.75;7.00;;;24.27;102240.25;;;;117491;1189;24894;-61
2022/10/06 01:28:38;;;;;;;;;7.25;5.75;;;24.27;102243.38;;;;117885;1187;24913;-61
2022/10/06 01:31:07;;;;;;;;;6.50;6.50;;;24.26;102241.81;;;;117553;1188;25065;-60
2022/10/06 01:33:35;;;;;;;;;7.75;7.75;;;24.25;102238.98;;;;117505;1188;25136;-60
2022/10/06 01:36:04;;;;;;;;;6.00;6.00;;;24.24;102237.08;;;;117452;1189;25741;-60
2022/10/06 01:38:33;;;;;;;;;11.00;7.00;;;24.24;102240.23;;;;117511;1188;24854;-61
2022/10/06 01:41:01;;;;;;;;;5.67;5.00;;;24.22;102238.39;;;;117386;1190;25650;-61
2022/10/06 01:43:29;;;;;;;;;6.00;6.00;;;24.21;102238.34;;;;117459;1188;25154;-61
2022/10/06 01:45:58;;;;;;;;;8.67;8.00;;;24.20;102239.52;;;;117484;1188;25158;-60
2022/10/06 01:48:27;;;;;;;;;8.50;8.50;;;24.20;102239.29;;;;117533;1188;25061;-60
2022/10/06 01:50:56;;;;;;;;;14.50;8.75;;;24.20;102240.52;;;;117815;1186;25685;-60
2022/10/06 01:53:24;;;;;;;;;7.25;6.50;;;24.20;102243.27;;;;117513;1188;25213;-67
2022/10/06 01:55:58;;;;;;;;;6.50;6.50;;;24.20;102243.05;;;;117463;1188;25143;-60
2022/10/06 01:58:26;;;;;;;;;7.33;7.00;;;24.19;102242.08;;;;117859;1188;25448;-61
2022/10/06 02:00:55;;;;;;;;;7.75;7.25;;;24.19;102243.04;;;;117521;1189;25519;-61
2022/10/06 02:03:23;;;;;;;;;10.67;7.00;;;24.20;102247.83;;;;117478;1188;25654;-61
2022/10/06 02:05:55;;;;;;;;;10.00;6.67;;;24.18;102248.69;;;;117517;1188;24726;-61
2022/10/06 02:08:23;;;;;;;;;5.75;5.75;;;24.17;102249.78;;;;117508;1188;25533;-62
2022/10/06 02:10:52;;;;;;;;;8.67;7.00;;;24.17;102246.02;;;;117492;1188;24955;-61
2022/10/06 02:13:27;;;;;;;;;7.33;7.33;;;24.16;102244.08;;;;117498;1189;25176;-61
2022/10/06 02:15:57;;;;;;;;;6.67;6.67;;;24.15;102241.21;;;;117457;1188;25615;-61
2022/10/06 02:18:25;;;;;;;;;9.00;8.00;;;24.15;102237.81;;;;117540;1189;25661;-61
2022/10/06 02:20:54;;;;;;;;;10.33;7.67;;;24.14;102241.56;;;;117522;1189;25123;-61
2022/10/06 02:23:23;;;;;;;;;7.25;7.25;;;24.15;102244.52;;;;117409;1189;25636;-59
2022/10/06 02:26:03;;;;;;;;;9.00;7.50;;;24.14;102244.36;;;;117484;1188;25768;-62
2022/10/06 02:28:31;;;;;;;;;7.00;7.00;;;24.15;102247.79;;;;117479;1187;25212;-62
2022/10/06 02:31:07;;;;;;;;;10.00;8.00;;;24.15;102243.80;;;;117528;1188;25021;-62
2022/10/06 02:33:37;;;;;;;;;6.25;5.00;;;24.15;102243.28;;;;117859;1186;24805;-60
2022/10/06 02:36:06;;;;;;;;;8.25;6.25;;;24.17;102240.94;;;;117519;1188;25254;-60
2022/10/06 02:38:35;;;;;;;;;11.00;8.50;;;24.17;102237.98;;;;117527;1187;25258;-61
2022/10/06 02:41:03;;;;;;;;;9.00;7.50;;;24.17;102231.13;;;;117467;1188;25707;-61
2022/10/06 02:43:33;;;;;;;;;5.50;5.50;;;24.14;102223.59;;;;117522;1188;25145;-61
2022/10/06 02:46:12;;;;;;;;;7.50;5.50;;;24.14;102222.11;;;;117536;1188;24957;-60
2022/10/06 02:48:40;;;;;;;;;9.50;8.50;;;24.14;102225.39;;;;117508;1186;25282;-61
2022/10/06 02:51:14;;;;;;;;;7.00;7.00;;;24.16;102220.98;;;;117465;1188;24846;-61
2022/10/06 02:53:44;;;;;;;;;9.25;5.50;;;24.15;102217.17;;;;117521;1188;25185;-61
2022/10/06 02:56:16;;;;;;;;;7.00;5.00;;;24.17;102213.38;;;;117508;1188;24953;-61
2022/10/06 02:58:46;;;;;;;;;7.00;7.00;;;24.15;102210.53;;;;117506;1189;25400;-62
2022/10/06 03:01:17;;;;;;;;;7.50;6.75;;;24.16;102216.16;;;;117894;1187;25632;-61
2022/10/06 03:03:46;;;;;;;;;7.67;7.00;;;24.15;102221.56;;;;117499;1188;25006;-62
2022/10/06 03:06:22;;;;;;;;;9.67;8.00;;;24.16;102222.12;;;;117517;1187;25124;-62
2022/10/06 03:08:56;;;;;;;;;7.00;5.50;;;24.18;102222.77;;;;117490;1188;26322;-62
2022/10/06 03:11:31;;;;;;;;;7.75;6.75;;;24.18;102221.69;;;;117896;1188;25518;-62
2022/10/06 03:14:00;;;;;;;;;13.50;8.00;;;24.20;102222.55;;;;117509;1188;25204;-62
2022/10/06 03:16:31;;;;;;;;;8.25;7.00;;;24.20;102219.74;;;;117494;1188;25164;-62
2022/10/06 03:19:00;;;;;;;;;7.00;6.00;;;24.21;102217.65;;;;117474;1189;24826;-62
2022/10/06 03:21:31;;;;;;;;;8.75;6.25;;;24.22;102215.23;;;;117540;1188;25436;-61
2022/10/06 03:24:00;;;;;;;;;8.67;7.67;;;24.22;102215.98;;;;117533;1188;25095;-61
2022/10/06 03:26:35;;;;;;;;;9.00;9.00;;;24.23;102217.52;;;;117532;1189;24938;-61
2022/10/06 03:29:04;;;;;;;;;7.67;7.67;;;24.23;102217.57;;;;117502;1188;25091;-61
2022/10/06 03:31:38;;;;;;;;;7.25;7.00;;;24.24;102215.56;;;;117792;1187;25516;-60
2022/10/06 03:34:07;;;;;;;;;8.00;7.25;;;24.26;102221.40;;;;117503;1189;24953;-60
2022/10/06 03:36:36;;;;;;;;;5.33;4.00;;;24.26;102224.21;;;;117508;1189;25720;-61
2022/10/06 03:39:05;;;;;;;;;5.67;5.33;;;24.25;102224.80;;;;117537;1189;25218;-61
2022/10/06 03:41:36;;;;;;;;;9.00;7.33;;;24.25;102225.86;;;;117494;1189;26019;-62
2022/10/06 03:44:04;;;;;;;;;7.00;7.00;;;24.26;102226.50;;;;117507;1188;25158;-62
2022/10/06 03:46:35;;;;;;;;;6.75;6.00;;;24.27;102225.70;;;;117472;1188;25469;-61
2022/10/06 03:49:04;;;;;;;;;7.50;7.00;;;24.27;102217.38;;;;117508;1188;25652;-61
2022/10/06 03:51:41;;;;;;;;;6.75;6.75;;;24.27;102216.58;;;;117539;1189;25134;-62
2022/10/06 03:54:11;;;;;;;;;6.00;5.25;;;24.29;102215.66;;;;117558;1189;25276;-61
2022/10/06 03:56:41;;;;;;;;;5.00;5.00;;;24.33;102216.13;;;;117544;1188;24697;-61
2022/10/06 03:59:12;;;;;;;;;6.67;6.00;;;24.31;102210.84;;;;117520;1189;25223;-61
2022/10/06 04:01:43;;;;;;;;;6.00;5.00;;;24.32;102208.41;;;;117444;1189;25677;-62
2022/10/06 04:04:13;;;;;;;;;10.00;8.25;;;24.31;102201.64;;;;117473;1189;24840;-61
2022/10/06 04:06:43;;;;;;;;;6.75;6.00;;;24.32;102198.83;;;;117766;1187;25527;-62
2022/10/06 04:09:13;;;;;;;;;7.25;5.75;;;24.32;102197.95;;;;117484;1189;24918;-62
2022/10/06 04:11:44;;;;;;;;;8.67;5.33;;;24.32;102202.86;;;;117451;1188;24801;-60
2022/10/06 04:14:14;;;;;;;;;6.67;6.67;;;24.32;102205.56;;;;117634;1188;25038;-61
2022/10/06 04:16:47;;;;;;;;;5.67;4.00;;;24.33;102202.98;;;;117494;1189;25607;-60
2022/10/06 04:19:17;;;;;;;;;6.33;6.33;;;24.33;102203.42;;;;117815;1188;25580;-61
2022/10/06 04:21:46;;;;;;;;;9.25;8.00;;;24.34;102202.97;;;;117510;1189;25131;-63
2022/10/06 04:24:17;;;;;;;;;11.33;8.00;;;24.34;102201.86;;;;117850;1188;25527;-61
2022/10/06 04:26:47;;;;;;;;;10.75;7.25;;;24.34;102197.20;;;;117385;1190;25577;-62
2022/10/06 04:29:16;;;;;;;;;8.00;7.00;;;24.34;102195.66;;;;117705;1188;24825;-69
2022/10/06 04:31:44;;;;;;;;;8.50;6.00;;;24.35;102198.03;;;;117503;1186;25520;-66
2022/10/06 04:34:13;;;;;;;;;8.75;7.25;;;24.35;102202.02;;;;117527;1189;24984;-69
2022/10/06 04:36:42;;;;;;;;;4.25;4.25;;;24.36;102206.85;;;;117414;1190;25542;-69
2022/10/06 04:39:11;;;;;;;;;7.50;6.00;;;24.34;102208.95;;;;117531;1189;25383;-65
2022/10/06 04:41:41;;;;;;;;;12.00;9.00;;;24.33;102211.96;;;;117544;1189;25473;-62
2022/10/06 04:44:09;;;;;;;;;10.00;7.00;;;24.34;102216.95;;;;117779;1186;25458;-61
2022/10/06 04:46:38;;;;;;;;;7.25;5.50;;;24.33;102218.75;;;;117497;1189;25163;-61
2022/10/06 04:49:12;;;;;;;;;8.33;7.33;;;24.33;102219.02;;;;117498;1188;25412;-61
2022/10/06 04:51:48;;;;;;;;;11.50;8.50;;;24.34;102226.47;;;;117507;1188;25339;-61
2022/10/06 04:54:20;;;;;;;;;7.33;7.33;;;24.34;102224.29;;;;117526;1189;25365;-63
2022/10/06 04:56:48;;;;;;;;;4.25;4.25;;;24.34;102228.23;;;;117514;1186;25409;-61
2022/10/06 04:59:17;;;;;;;;;8.50;7.00;;;24.34;102225.27;;;;117876;1188;25570;-60
2022/10/06 05:01:45;;;;;;;;;6.25;6.25;;;24.34;102218.84;;;;117501;1188;25081;-61
2022/10/06 05:04:13;;;;;;;;;11.00;8.00;;;24.32;102218.81;;;;117533;1188;24703;-61
2022/10/06 05:06:42;;;;;;;;;6.25;6.00;;;24.32;102218.68;;;;117463;1189;24970;-60
2022/10/06 05:09:13;;;;;;;;;7.33;7.33;;;24.32;102213.96;;;;117519;1188;24786;-61
2022/10/06 05:11:42;;;;;;;;;9.25;8.00;;;24.33;102219.37;;;;117526;1188;24885;-61
2022/10/06 05:14:10;;;;;;;;;6.00;6.00;;;24.35;102217.76;;;;117484;1189;25527;-61
2022/10/06 05:16:39;;;;;;;;;8.00;7.33;;;24.34;102218.77;;;;117504;1189;24808;-65
2022/10/06 05:19:07;;;;;;;;;6.25;5.50;;;24.35;102221.92;;;;117474;1188;25124;-67
2022/10/06 05:21:35;;;;;;;;;6.50;5.00;;;24.34;102227.11;;;;117461;1188;25499;-64
2022/10/06 05:24:04;;;;;;;;;8.25;6.50;;;24.34;102229.55;;;;117467;1188;24848;-61
2022/10/06 05:26:34;;;;;;;;;9.25;7.00;;;24.33;102233.91;;;;117516;1189;24802;-60
2022/10/06 05:29:03;;;;;;;;;7.00;6.25;;;24.35;102235.98;;;;117516;1186;26390;-60
2022/10/06 05:31:37;;;;;;;;;7.00;7.00;;;24.34;102236.97;;;;117868;1186;24736;-60
2022/10/06 05:34:07;;;;;;;;;7.50;7.50;;;24.36;102239.70;;;;117871;1188;25472;-61
2022/10/06 05:36:35;;;;;;;;;7.75;7.00;;;24.35;102244.60;;;;117529;1187;25046;-61
2022/10/06 05:39:04;;;;;;;;;8.00;5.25;;;24.34;102244.77;;;;117535;1188;25184;-61
2022/10/06 05:41:33;;;;;;;;;8.00;5.67;;;24.36;102246.83;;;;117533;1188;25510;-59
2022/10/06 05:44:02;;;;;;;;;7.25;6.25;;;24.35;102248.85;;;;117512;1187;25217;-60
2022/10/06 05:46:35;;;;;;;;;7.50;7.50;;;24.35;102254.70;;;;117410;1188;24896;-59
2022/10/06 05:49:09;;;;;;;;;8.50;8.00;;;24.38;102260.54;;;;117465;1187;25370;-59
2022/10/06 05:51:41;;;;;;;;;7.75;7.75;;;24.37;102263.79;;;;117893;1187;24885;-58
2022/10/06 05:54:09;;;;;;;;;11.75;9.00;;;24.37;102266.33;;;;117512;1188;25557;-58
2022/10/06 05:56:38;;;;;;;;;6.50;6.50;;;24.35;102271.92;;;;117490;1188;25158;-58
2022/10/06 05:59:06;;;;;;;;;9.67;8.67;;;24.35;102273.41;;;;117511;1188;24853;-58
2022/10/06 06:01:38;;;;;;;;;7.25;7.25;;;24.35;102271.37;;;;117519;1188;25668;-58
2022/10/06 06:04:09;;;;;;;;;10.50;5.00;;;24.33;102271.15;;;;117510;1188;24681;-58
2022/10/06 06:06:41;;;;;;;;;7.00;6.25;;;24.35;102272.69;;;;117496;1188;24863;-59
2022/10/06 06:09:17;;;;;;;;;11.00;9.33;;;24.33;102271.62;;;;117500;1188;25426;-58
2022/10/06 06:11:48;;;;;;;;;10.50;9.00;;;24.35;102276.04;;;;117870;1188;25170;-58
2022/10/06 06:14:18;;;;;;;;;8.33;8.00;;;24.34;102279.97;;;;117883;1188;25701;-58
2022/10/06 06:16:47;;;;;;;;;15.50;6.50;;;24.34;102282.55;;;;117523;1188;25402;-58
2022/10/06 06:19:15;;;;;;;;;7.00;5.50;;;24.34;102283.56;;;;117550;1188;25128;-58
2022/10/06 06:21:44;;;;;;;;;12.75;10.25;;;24.35;102276.00;;;;117472;1188;25148;-59
2022/10/06 06:24:12;;;;;;;;;15.75;10.75;;;24.34;102275.30;;;;117434;1188;24732;-60
2022/10/06 06:26:40;;;;;;;;;11.33;7.00;;;24.34;102278.13;;;;117460;1189;25602;-59
2022/10/06 06:29:09;;;;;;;;;13.25;9.50;;;24.36;102278.66;;;;117524;1188;25057;-60
2022/10/06 06:31:40;;;;;;;;;16.00;10.00;;;24.36;102276.58;;;;117466;1188;24937;-59
2022/10/06 06:34:10;;;;;;;;;15.00;8.67;;;24.35;102278.86;;;;117513;1188;25211;-60
2022/10/06 06:36:40;;;;;;;;;12.75;10.50;;;24.35;102275.26;;;;117526;1188;25214;-59
2022/10/06 06:39:10;;;;;;;;;13.00;11.00;;;24.35;102271.81;;;;117901;1187;24767;-59
2022/10/06 06:41:46;;;;;;;;;16.25;12.50;;;24.35;102270.62;;;;117525;1188;25291;-58
2022/10/06 06:44:14;;;;;;;;;12.00;10.25;;;24.36;102265.52;;;;117691;1188;25011;-58
2022/10/06 06:46:48;;;;;;;;;13.00;8.25;;;24.38;102262.97;;;;117475;1188;25275;-58
2022/10/06 06:49:17;;;;;;;;;14.25;11.00;;;24.38;102262.83;;;;117551;1188;25467;-59
2022/10/06 06:51:49;;;;;;;;;12.33;10.67;;;24.40;102265.15;;;;117538;1188;25259;-59
2022/10/06 06:54:18;;;;;;;;;10.75;9.00;;;24.40;102264.99;;;;117496;1188;24824;-61
2022/10/06 06:56:47;;;;;;;;;14.25;12.00;;;24.40;102269.23;;;;117539;1189;25201;-60
2022/10/06 06:59:16;;;;;;;;;13.33;9.67;;;24.40;102269.33;;;;117521;1188;25589;-59
2022/10/06 07:01:46;;;;;;;;;15.33;10.67;;;24.38;102274.89;;;;117533;1188;25099;-59
2022/10/06 07:04:15;;;;;;;;;8.33;8.00;;;24.39;102277.17;;;;117531;1188;25631;-58
2022/10/06 07:06:56;;;;;;;;;10.50;8.50;;;24.39;102274.92;;;;117546;1188;24882;-59
2022/10/06 07:09:26;;;;;;;;;14.67;12.67;;;24.40;102281.14;;;;117475;1188;25380;-58
2022/10/06 07:11:54;;;;;;;;;13.50;11.00;;;24.41;102290.78;;;;117517;1188;25492;-59
2022/10/06 07:14:23;;;;;;;;;12.50;9.75;;;24.41;102296.39;;;;117455;1188;24973;-57
2022/10/06 07:25:23;;;;;;;;;15.00;10.75;;;24.33;102290.01;;;;117860;1187;25706;-58
2022/10/06 07:27:53;;;;;;;;;15.50;12.50;;;24.33;102289.31;;;;117531;1187;24980;-58
2022/10/06 07:30:27;;;;;;;;;14.50;11.75;;;24.32;102291.66;;;;117522;1187;24794;-57
2022/10/06 07:32:56;;;;;;;;;12.00;11.25;;;24.31;102295.01;;;;117534;1189;25464;-58
2022/10/06 07:35:24;;;;;;;;;16.50;11.25;;;24.31;102293.21;;;;117877;1188;25602;-58
2022/10/06 07:37:53;;;;;;;;;16.00;12.75;;;24.30;102291.62;;;;117911;1186;25180;-58
2022/10/06 07:40:21;;;;;;;;;13.75;12.00;;;24.30;102291.79;;;;117766;1187;25688;-57
2022/10/06 07:42:53;;;;;;;;;13.00;13.00;;;24.28;102288.48;;;;117511;1188;24915;-62
2022/10/06 07:45:40;;;;;;;;;17.33;14.33;;;24.27;102283.82;;;;117922;1186;24780;-57
2022/10/06 07:48:20;;;;;;;;;13.50;13.00;;;24.27;102283.31;;;;117654;1187;25604;-58
2022/10/06 07:50:50;;;;;;;;;13.50;10.00;;;24.28;102286.77;;;;117473;1188;25336;-58
2022/10/06 07:53:19;;;;;;;;;13.00;10.50;;;24.26;102290.04;;;;117513;1188;25333;-58
2022/10/06 07:55:48;;;;;;;;;14.00;10.00;;;24.27;102294.02;;;;117949;1186;25138;-58
2022/10/06 07:58:22;;;;;;;;;12.00;8.00;;;24.26;102302.97;;;;117530;1188;25136;-57
2022/10/06 08:00:51;;;;;;;;;11.50;10.00;;;24.27;102308.09;;;;117889;1187;25281;-57
2022/10/06 08:03:20;;;;;;;;;16.00;11.00;;;24.26;102306.79;;;;117522;1188;25764;-58
2022/10/06 08:05:57;;;;;;;;;14.50;12.50;;;24.27;102304.46;;;;117558;1189;25126;-59
2022/10/06 08:08:26;;;;;;;;;23.00;15.67;;;24.27;102302.50;;;;117510;1188;25534;-58
2022/10/06 08:10:56;;;;;;;;;14.75;11.25;;;24.32;102303.84;;;;117888;1188;25142;-58
2022/10/06 08:13:31;;;;;;;;;16.25;11.25;;;24.33;102300.85;;;;117513;1187;25023;-57
2022/10/06 08:16:07;;;;;;;;;13.25;12.50;;;24.35;102300.16;;;;117430;1190;24982;-56
2022/10/06 08:18:36;;;;;;;;;17.00;13.00;;;24.37;102300.23;;;;117458;1189;24812;-59
2022/10/06 08:21:20;;;;;;;;;14.50;10.00;;;24.40;102299.87;;;;117566;1188;25684;-57
2022/10/06 08:23:49;;;;;;;;;17.00;12.67;;;24.42;102294.37;;;;117517;1188;25442;-57
2022/10/06 08:26:20;;;;;;;;;13.33;11.00;;;24.44;102293.49;;;;117888;1187;24966;-58
2022/10/06 08:28:50;;;;;;;;;10.75;10.50;;;24.45;102290.48;;;;117515;1188;25141;-57
2022/10/06 08:31:20;;;;;;;;;13.50;12.75;;;24.46;102291.74;;;;117501;1188;24887;-57
2022/10/06 08:33:53;;;;;;;;;11.00;10.50;;;24.47;102287.36;;;;117534;1188;24866;-58
2022/10/06 08:36:26;;;;;;;;;13.33;11.33;;;24.48;102280.59;;;;117874;1187;25724;-58
2022/10/06 08:39:00;;;;;;;;;12.75;11.50;;;24.52;102281.69;;;;117539;1188;25022;-59
2022/10/06 08:41:44;;;;;;;;;13.50;11.75;;;24.55;102284.44;;;;117520;1186;25019;-58
2022/10/06 08:44:17;;;;;;;;;11.50;10.00;;;24.57;102287.98;;;;117879;1186;25032;-59
2022/10/06 08:46:53;;;;;;;;;6.25;6.25;;;24.57;102287.19;;;;117880;1187;25144;-59
2022/10/06 08:49:24;;;;;;;;;17.75;13.00;;;24.58;102281.20;;;;117516;1188;24857;-58
2022/10/06 08:52:15;;;;;;;;;11.75;10.00;;;24.60;102278.34;;;;117516;1189;25602;-59
2022/10/06 08:54:57;;;;;;;;;11.00;10.25;;;24.64;102278.09;;;;117514;1188;25171;-57
2022/10/06 08:57:41;;;;;;;;;16.25;13.50;;;24.69;102274.02;;;;117841;1187;25363;-58
2022/10/06 09:00:14;;;;;;;;;13.75;11.50;;;24.71;102269.05;;;;117848;1187;25090;-58
2022/10/06 09:02:49;;;;;;;;;11.00;9.50;;;24.71;102267.52;;;;117373;1190;25979;-59
2022/10/06 09:05:27;;;;;;;;;11.75;10.75;;;24.72;102264.41;;;;117546;1187;25635;-56
2022/10/06 09:08:17;;;;;;;;;15.00;12.00;;;24.74;102265.35;;;;117514;1189;25541;-59
2022/10/06 09:11:13;;;;;;;;;14.00;11.00;;;24.75;102260.23;;;;117888;1187;25241;-59
2022/10/06 09:14:13;;;;;;;;;14.50;12.00;;;24.77;102255.67;;;;117844;1187;25342;-59
2022/10/06 09:16:46;;;;;;;;;12.25;11.25;;;24.80;102254.40;;;;117371;1190;24805;-59
2022/10/06 09:19:27;;;;;;;;;11.75;10.75;;;24.85;102249.08;;;;117497;1188;25263;-58
2022/10/06 09:22:03;;;;;;;;;13.25;10.75;;;24.88;102248.52;;;;117520;1186;24927;-59
2022/10/06 09:24:44;;;;;;;;;11.67;11.33;;;24.87;102250.69;;;;117514;1187;25628;-58
2022/10/06 09:27:32;;;;;;;;;14.00;10.50;;;24.87;102249.21;;;;117516;1188;25508;-58
2022/10/06 09:30:03;;;;;;;;;13.25;12.50;;;24.89;102248.60;;;;117426;1190;25075;-58
2022/10/06 09:32:33;;;;;;;;;16.33;13.00;;;24.89;102246.36;;;;117881;1187;24895;-65
2022/10/06 09:35:22;;;;;;;;;12.00;11.25;;;24.87;102250.73;;;;117487;1189;25769;-59
2022/10/06 09:37:52;;;;;;;;;13.33;13.00;;;24.89;102248.45;;;;117887;1187;25417;-59
2022/10/06 09:40:43;;;;;;;;;13.00;12.00;;;24.89;102243.66;;;;117876;1187;25218;-58
2022/10/06 09:43:26;;;;;;;;;13.00;13.00;;;24.94;102239.26;;;;117631;1188;25451;-64
2022/10/06 09:45:57;;;;;;;;;10.50;9.50;;;24.96;102240.75;;;;117479;1188;24899;-67
2022/10/06 09:48:26;;;;;;;;;14.00;10.00;;;24.94;102239.94;;;;117502;1188;24694;-67
2022/10/06 09:51:16;;;;;;;;;16.67;11.67;;;24.93;102237.81;;;;117540;1188;26469;-67
2022/10/06 09:54:13;;;;;;;;;13.67;9.67;;;24.91;102234.27;;;;117485;1187;24966;-68
2022/10/06 09:56:43;;;;;;;;;13.75;13.75;;;24.94;102229.42;;;;117901;1187;25435;-60
2022/10/06 09:59:21;;;;;;;;;7.33;6.00;;;24.96;102225.64;;;;117438;1190;24776;-60
2022/10/06 10:01:51;;;;;;;;;11.00;10.25;;;24.94;102217.77;;;;117787;1188;25462;-58
2022/10/06 10:04:33;;;;;;;;;14.25;11.50;;;24.93;102211.55;;;;117492;1188;26480;-58
2022/10/06 10:07:23;;;;;;;;;12.50;11.00;;;24.91;102206.00;;;;117518;1187;24853;-59
2022/10/06 10:09:53;;;;;;;;;13.00;12.25;;;24.94;102200.39;;;;117874;1188;25127;-59
2022/10/06 10:12:27;;;;;;;;;12.25;12.25;;;24.96;102201.04;;;;117525;1188;25487;-58
2022/10/06 10:14:57;;;;;;;;;11.00;10.00;;;24.93;102200.74;;;;117878;1187;25642;-58
2022/10/06 10:17:31;;;;;;;;;15.50;12.25;;;24.91;102201.35;;;;117849;1186;24983;-58
2022/10/06 10:20:01;;;;;;;;;14.25;12.00;;;24.90;102197.50;;;;117462;1190;25215;-58
2022/10/06 10:22:34;;;;;;;;;14.00;12.33;;;24.89;102201.76;;;;117873;1187;25567;-58
2022/10/06 10:25:32;;;;;;;;;9.75;9.25;;;24.87;102201.02;;;;117510;1188;25259;-58
2022/10/06 10:28:08;;;;;;;;;11.00;11.00;;;24.89;102194.86;;;;117516;1188;24966;-60
2022/10/06 10:30:55;;;;;;;;;12.50;9.00;;;24.90;102194.30;;;;117512;1188;24909;-58
2022/10/06 10:33:45;;;;;;;;;16.25;13.50;;;24.90;102198.30;;;;117507;1188;25407;-59
2022/10/06 10:36:37;;;;;;;;;11.25;9.75;;;24.92;102194.07;;;;117564;1188;24981;-58
2022/10/06 10:39:11;;;;;;;;;11.00;9.75;;;24.92;102191.45;;;;117497;1188;24935;-59
2022/10/06 10:41:45;;;;;;;;;13.00;12.00;;;24.90;102188.87;;;;117545;1187;25106;-58
2022/10/06 10:44:30;;;;;;;;;11.50;9.75;;;24.90;102184.38;;;;117529;1188;25425;-58
2022/10/06 10:47:29;;;;;;;;;14.25;11.25;;;24.90;102182.67;;;;117832;1188;26257;-58
2022/10/06 10:50:03;;;;;;;;;8.00;8.00;;;24.94;102183.52;;;;117694;1186;25611;-59
2022/10/06 10:52:37;;;;;;;;;13.00;10.25;;;24.92;102180.02;;;;117875;1188;25498;-58
2022/10/06 10:55:14;;;;;;;;;15.50;11.50;;;24.88;102178.09;;;;117875;1188;26209;-58
2022/10/06 10:57:44;;;;;;;;;12.25;9.25;;;24.88;102176.35;;;;117822;1186;25638;-58
2022/10/06 11:00:24;;;;;;;;;13.25;12.00;;;24.87;102182.01;;;;117857;1187;24826;-58
2022/10/06 11:02:55;;;;;;;;;9.00;9.00;;;24.85;102182.48;;;;117821;1188;24751;-59
2022/10/06 11:05:49;;;;;;;;;12.25;10.00;;;24.85;102175.95;;;;117700;1187;24810;-59
2022/10/06 11:08:32;;;;;;;;;12.50;8.00;;;24.95;102172.12;;;;117494;1188;24936;-59
2022/10/06 11:11:05;;;;;;;;;12.67;7.00;;;24.89;102168.70;;;;117902;1188;25337;-58
2022/10/06 11:13:50;;;;;;;;;9.00;8.67;;;24.85;102163.20;;;;117612;1186;24799;-60
2022/10/06 11:16:28;;;;;;;;;6.75;6.75;;;24.84;102156.16;;;;117914;1186;25542;-58
2022/10/06 11:19:13;;;;;;;;;8.33;7.67;;;24.83;102157.34;;;;117877;1188;25185;-59
2022/10/06 11:22:05;;;;;;;;;13.00;9.00;;;24.85;102156.83;;;;117531;1187;25227;-59
2022/10/06 11:24:36;;;;;;;;;11.00;9.50;;;24.86;102152.84;;;;117527;1188;25082;-58
2022/10/06 11:27:15;;;;;;;;;10.50;10.50;;;24.89;102147.00;;;;117829;1186;25569;-58
2022/10/06 11:30:00;;;;;;;;;14.00;10.50;;;24.85;102146.77;;;;117834;1187;25137;-58
2022/10/06 11:32:45;;;;;;;;;8.50;8.25;;;24.83;102146.67;;;;117827;1187;25338;-59
2022/10/06 11:35:20;;;;;;;;;10.67;8.00;;;24.84;102152.05;;;;117800;1186;25173;-61
2022/10/06 11:38:16;;;;;;;;;12.33;10.33;;;24.82;102146.69;;;;117495;1188;25214;-60
2022/10/06 11:41:26;;;;;;;;;8.50;8.25;;;24.83;102150.91;;;;117460;1188;25582;-58
2022/10/06 11:44:13;;;;;;;;;12.75;9.50;;;24.87;102146.25;;;;117574;1187;25154;-60
2022/10/06 11:46:50;;;;;;;;;9.00;7.00;;;24.85;102149.63;;;;117469;1189;25250;-60
2022/10/06 11:49:28;;;;;;;;;5.50;5.00;;;24.87;102148.25;;;;117408;1189;25657;-60
2022/10/06 11:52:05;;;;;;;;;11.50;9.50;;;24.84;102147.73;;;;117460;1188;25125;-57
2022/10/06 11:54:38;;;;;;;;;8.50;8.50;;;24.85;102148.10;;;;117490;1188;24887;-58
2022/10/06 11:57:22;;;;;;;;;10.00;8.75;;;24.75;102141.87;;;;117521;1189;25181;-58
2022/10/06 12:00:03;;;;;;;;;11.00;9.00;;;24.84;102142.98;;;;117728;1186;25703;-57
2022/10/06 12:02:31;;;;;;;;;11.00;10.75;;;24.84;102140.09;;;;117469;1189;25716;-57
2022/10/06 12:05:09;;;;;;;;;12.50;10.25;;;24.78;102142.33;;;;117491;1187;24990;-58
2022/10/06 12:07:58;;;;;;;;;10.00;9.00;;;24.78;102140.95;;;;117763;1188;24933;-56
2022/10/06 12:10:26;;;;;;;;;11.00;9.50;;;24.82;102135.95;;;;117878;1186;25239;-58
2022/10/06 12:13:10;;;;;;;;;12.50;8.75;;;24.78;102138.84;;;;117488;1189;25517;-62
2022/10/06 12:16:23;;;;;;;;;7.67;6.67;;;24.83;102131.28;;;;117548;1189;25062;-58
2022/10/06 12:19:30;;;;;;;;;8.50;7.00;;;24.86;102128.52;;;;117850;1188;25122;-58
2022/10/06 12:22:13;;;;;;;;;10.00;9.00;;;24.83;102125.86;;;;117534;1187;25822;-57
2022/10/06 12:24:50;;;;;;;;;8.25;7.00;;;24.79;102127.30;;;;117527;1188;25472;-57
2022/10/06 12:27:26;;;;;;;;;11.50;9.50;;;24.77;102130.38;;;;117489;1187;25060;-57
2022/10/06 12:30:12;;;;;;;;;4.33;4.33;;;24.76;102129.03;;;;117452;1188;25686;-64